createdAt,value
2022-10-04T00:01:45.419Z,8.09
2022-10-04T00:04:28.407Z,8.09
2022-10-04T00:07:03.289Z,8.10
2022-10-04T00:09:36.268Z,8.09
2022-10-04T00:12:05.979Z,8.10
2022-10-04T00:14:39.501Z,8.11
2022-10-04T00:17:20.354Z,8.14
2022-10-04T00:19:50.570Z,8.18
2022-10-04T00:22:23.700Z,8.21
2022-10-04T00:25:21.227Z,8.25
2022-10-04T00:28:28.936Z,8.27
2022-10-04T00:31:09.155Z,8.31
2022-10-04T00:33:44.052Z,8.34
2022-10-04T00:36:24.177Z,8.36
2022-10-04T00:39:13.318Z,8.41
2022-10-04T00:41:47.411Z,8.46
2022-10-04T00:44:47.420Z,8.48
2022-10-04T00:47:21.273Z,8.50
2022-10-04T00:49:52.041Z,8.50
2022-10-04T00:52:26.303Z,8.51
2022-10-04T00:55:00.154Z,8.52
2022-10-04T00:57:37.349Z,8.51
2022-10-04T01:00:12.172Z,8.52
2022-10-04T01:02:45.741Z,8.54
2022-10-04T01:05:16.352Z,8.57
2022-10-04T01:07:56.147Z,8.59
2022-10-04T01:10:29.889Z,8.61
2022-10-04T01:13:16.567Z,8.62
2022-10-04T01:16:14.878Z,8.64
2022-10-04T01:18:43.410Z,8.65
2022-10-04T01:21:20.361Z,8.68
2022-10-04T01:23:51.181Z,8.70
2022-10-04T01:26:32.357Z,8.71
2022-10-04T01:29:08.070Z,8.74
2022-10-04T01:31:45.986Z,8.77
2022-10-04T01:34:16.751Z,8.77
2022-10-04T01:36:47.793Z,8.76
2022-10-04T01:39:18.208Z,8.73
2022-10-04T01:41:54.163Z,8.69
2022-10-04T01:44:27.895Z,8.67
2022-10-04T01:47:02.136Z,8.63
2022-10-04T01:49:34.540Z,8.60
2022-10-04T01:52:40.852Z,8.57
2022-10-04T01:55:17.261Z,8.58
2022-10-04T01:57:50.717Z,8.58
2022-10-04T02:00:22.110Z,8.59
2022-10-04T02:03:00.901Z,8.60
2022-10-04T02:05:38.542Z,8.63
2022-10-04T02:08:13.547Z,8.67
2022-10-04T02:10:43.715Z,8.70
2022-10-04T02:13:15.482Z,8.72
2022-10-04T02:15:44.835Z,8.74
2022-10-04T02:18:15.776Z,8.76
2022-10-04T02:20:45.490Z,8.78
2022-10-04T02:23:14.477Z,8.82
2022-10-04T02:25:42.295Z,8.84
2022-10-04T02:28:12.350Z,8.86
2022-10-04T02:30:44.540Z,8.88
2022-10-04T02:33:12.616Z,8.89
2022-10-04T02:35:46.471Z,8.88
2022-10-04T02:38:14.843Z,8.86
2022-10-04T02:40:56.148Z,8.83
2022-10-04T02:43:30.605Z,8.80
2022-10-04T02:46:17.733Z,8.76
2022-10-04T02:48:56.314Z,8.72
2022-10-04T02:51:33.645Z,8.69
2022-10-04T02:54:07.872Z,8.67
2022-10-04T02:56:37.731Z,8.65
2022-10-04T02:59:07.255Z,8.62
2022-10-04T03:01:57.820Z,8.58
2022-10-04T03:04:30.541Z,8.53
2022-10-04T03:07:02.270Z,8.50
2022-10-04T03:09:30.592Z,8.49
2022-10-04T03:11:59.212Z,8.48
2022-10-04T03:14:28.949Z,8.48
2022-10-04T03:17:00.846Z,8.48
2022-10-04T03:19:33.930Z,8.46
2022-10-04T03:22:08.890Z,8.43
2022-10-04T03:25:02.614Z,8.43
2022-10-04T03:27:34.564Z,8.42
2022-10-04T03:30:03.018Z,8.41
2022-10-04T03:32:32.533Z,8.39
2022-10-04T03:35:07.947Z,8.39
2022-10-04T03:37:38.568Z,8.40
2022-10-04T03:40:10.232Z,8.38
2022-10-04T03:42:39.711Z,8.37
2022-10-04T03:45:15.754Z,8.37
2022-10-04T03:47:48.624Z,8.36
2022-10-04T03:50:21.247Z,8.36
2022-10-04T03:52:54.749Z,8.38
2022-10-04T03:55:32.239Z,8.39
2022-10-04T03:58:01.331Z,8.38
2022-10-04T04:00:29.718Z,8.36
2022-10-04T04:03:01.183Z,8.36
2022-10-04T04:05:39.561Z,8.35
2022-10-04T04:08:12.417Z,8.36
2022-10-04T04:10:54.537Z,8.35
2022-10-04T04:13:45.604Z,8.33
2022-10-04T04:16:14.992Z,8.31
2022-10-04T04:18:45.455Z,8.28
2022-10-04T04:21:18.886Z,8.26
2022-10-04T04:24:02.843Z,8.25
2022-10-04T04:26:36.807Z,8.23
2022-10-04T04:29:11.315Z,8.21
2022-10-04T04:32:09.198Z,8.19
2022-10-04T04:34:51.282Z,8.17
2022-10-04T04:37:20.096Z,8.18
2022-10-04T04:39:55.090Z,8.19
2022-10-04T04:42:33.113Z,8.22
2022-10-04T04:45:07.010Z,8.21
2022-10-04T04:47:37.405Z,8.21
2022-10-04T04:50:15.524Z,8.19
2022-10-04T04:52:58.910Z,8.19
2022-10-04T04:55:44.498Z,8.21
2022-10-04T04:58:22.316Z,8.24
2022-10-04T05:00:55.959Z,8.26
2022-10-04T05:03:24.163Z,8.29
2022-10-04T05:05:52.465Z,8.32
2022-10-04T05:08:20.305Z,8.33
2022-10-04T05:10:55.563Z,8.35
2022-10-04T05:13:32.048Z,8.39
2022-10-04T05:16:01.121Z,8.44
2022-10-04T05:18:33.520Z,8.50
2022-10-04T05:21:20.680Z,8.55
2022-10-04T05:23:49.067Z,8.58
2022-10-04T05:26:25.175Z,8.62
2022-10-04T05:28:54.823Z,8.65
2022-10-04T05:31:35.157Z,8.71
2022-10-04T05:34:15.999Z,8.73
2022-10-04T05:37:20.606Z,8.75
2022-10-04T05:39:54.304Z,8.78
2022-10-04T05:42:24.189Z,8.82
2022-10-04T05:44:57.321Z,8.85
2022-10-04T05:47:31.130Z,8.88
2022-10-04T05:50:01.118Z,8.91
2022-10-04T05:52:34.605Z,8.95
2022-10-04T05:55:28.741Z,9.01
2022-10-04T05:58:25.352Z,9.09
2022-10-04T06:01:11.370Z,9.23
2022-10-04T06:03:54.920Z,9.33
2022-10-04T06:06:31.387Z,9.40
2022-10-04T06:09:34.904Z,9.42
2022-10-04T06:12:17.632Z,9.45
2022-10-04T06:15:05.438Z,9.45
2022-10-04T06:18:12.461Z,9.46
2022-10-04T06:20:46.112Z,9.47
2022-10-04T06:23:17.121Z,9.49
2022-10-04T06:26:10.372Z,9.50
2022-10-04T06:28:43.330Z,9.52
2022-10-04T06:31:34.500Z,9.54
2022-10-04T06:34:36.508Z,9.58
2022-10-04T06:37:22.908Z,9.65
2022-10-04T06:40:26.164Z,9.76
2022-10-04T06:43:05.225Z,9.86
2022-10-04T06:45:45.094Z,9.93
2022-10-04T06:48:23.860Z,10.00
2022-10-04T06:51:28.589Z,10.07
2022-10-04T06:54:15.294Z,10.18
2022-10-04T06:57:14.209Z,10.28
2022-10-04T07:00:01.358Z,10.43
2022-10-04T07:02:42.681Z,10.55
2022-10-04T07:05:30.755Z,10.67
2022-10-04T07:08:34.305Z,10.76
2022-10-04T07:11:17.632Z,10.85
2022-10-04T07:13:58.466Z,10.87
2022-10-04T07:16:44.007Z,10.89
2022-10-04T07:19:24.907Z,10.90
2022-10-04T07:22:08.269Z,10.89
2022-10-04T07:24:36.660Z,10.86
2022-10-04T07:27:12.467Z,10.83
2022-10-04T07:29:46.282Z,10.80
2022-10-04T07:32:34.804Z,10.77
2022-10-04T07:35:06.417Z,10.74
2022-10-04T07:37:51.260Z,10.72
2022-10-04T07:40:23.127Z,10.69
2022-10-04T07:43:00.072Z,10.69
2022-10-04T07:45:32.899Z,10.69
2022-10-04T07:48:14.648Z,10.72
2022-10-04T07:50:56.314Z,10.71
2022-10-04T07:53:30.282Z,10.72
2022-10-04T07:56:11.002Z,10.72
2022-10-04T07:58:49.745Z,10.72
2022-10-04T08:01:45.899Z,10.73
2022-10-04T08:04:51.417Z,10.75
2022-10-04T08:07:33.253Z,10.77
2022-10-04T08:10:35.691Z,10.82
2022-10-04T08:13:37.513Z,10.84
2022-10-04T08:16:37.187Z,10.88
2022-10-04T08:19:23.033Z,10.98
2022-10-04T08:22:33.479Z,11.10
2022-10-04T08:25:33.010Z,11.21
2022-10-04T08:28:53.319Z,11.33
2022-10-04T08:31:48.624Z,11.44
2022-10-04T08:34:31.300Z,11.49
2022-10-04T08:37:28.045Z,11.55
2022-10-04T08:40:44.301Z,11.60
2022-10-04T08:43:31.069Z,11.59
2022-10-04T08:46:26.322Z,11.59
2022-10-04T08:49:21.632Z,11.56
2022-10-04T08:52:08.657Z,11.54
2022-10-04T08:54:40.479Z,11.53
2022-10-04T08:57:15.835Z,11.52
2022-10-04T08:59:58.073Z,11.54
2022-10-04T09:02:41.728Z,11.64
2022-10-04T09:05:27.823Z,11.71
2022-10-04T09:08:14.405Z,11.76
2022-10-04T09:11:05.169Z,11.76
2022-10-04T09:13:57.256Z,11.84
2022-10-04T09:16:42.830Z,11.98
2022-10-04T09:19:23.526Z,12.15
2022-10-04T09:21:57.569Z,12.20
2022-10-04T09:24:34.173Z,12.20
2022-10-04T09:27:54.730Z,12.24
2022-10-04T09:30:56.916Z,12.35
2022-10-04T09:33:53.586Z,12.36
2022-10-04T09:36:54.633Z,12.38
2022-10-04T09:39:30.472Z,12.38
2022-10-04T09:42:16.885Z,12.39
2022-10-04T09:45:23.348Z,12.49
2022-10-04T09:48:22.496Z,12.63
2022-10-04T09:51:18.899Z,12.65
2022-10-04T09:54:22.129Z,12.61
2022-10-04T09:57:28.275Z,12.55
2022-10-04T10:00:02.955Z,12.46
2022-10-04T10:02:33.986Z,12.40
2022-10-04T10:05:27.041Z,12.34
2022-10-04T10:08:13.617Z,12.25
2022-10-04T10:11:21.898Z,12.20
2022-10-04T10:14:08.475Z,12.17
2022-10-04T10:17:00.978Z,12.15
2022-10-04T10:19:41.882Z,12.13
2022-10-04T10:22:30.715Z,12.18
2022-10-04T10:25:13.073Z,12.21
2022-10-04T10:27:43.786Z,12.31
2022-10-04T10:30:31.408Z,12.48
2022-10-04T10:33:08.694Z,12.69
2022-10-04T10:36:08.357Z,12.77
2022-10-04T10:39:02.530Z,12.70
2022-10-04T10:41:53.072Z,12.64
2022-10-04T10:44:23.648Z,12.56
2022-10-04T10:47:16.569Z,12.52
2022-10-04T10:50:03.958Z,12.44
2022-10-04T10:53:09.997Z,12.37
2022-10-04T10:55:49.398Z,12.27
2022-10-04T10:59:10.819Z,12.21
2022-10-04T11:02:00.569Z,12.16
2022-10-04T11:05:13.339Z,12.21
2022-10-04T11:07:56.325Z,12.33
2022-10-04T11:10:55.030Z,12.44
2022-10-04T11:13:48.720Z,12.51
2022-10-04T11:16:21.524Z,12.50
2022-10-04T11:19:17.646Z,12.43
2022-10-04T11:22:09.782Z,12.30
2022-10-04T11:25:35.153Z,12.08
2022-10-04T11:28:26.591Z,11.88
2022-10-04T11:31:13.343Z,11.77
2022-10-04T11:34:05.523Z,11.72
2022-10-04T11:36:51.052Z,11.65
2022-10-04T11:39:44.534Z,11.57
2022-10-04T11:42:57.356Z,11.52
2022-10-04T11:45:42.789Z,11.48
2022-10-04T11:48:23.274Z,11.43
2022-10-04T11:51:06.215Z,11.40
2022-10-04T11:53:45.353Z,11.39
2022-10-04T11:56:35.352Z,11.41
2022-10-04T11:59:28.116Z,11.43
2022-10-04T12:02:27.274Z,11.40
2022-10-04T12:05:36.717Z,11.37
2022-10-04T12:08:49.106Z,11.34
2022-10-04T12:11:51.843Z,11.28
2022-10-04T12:14:24.861Z,11.21
2022-10-04T12:16:58.669Z,11.18
2022-10-04T12:19:39.752Z,11.17
2022-10-04T12:22:23.646Z,11.18
2022-10-04T12:25:03.375Z,11.20
2022-10-04T12:27:46.179Z,11.23
2022-10-04T12:30:23.034Z,11.27
2022-10-04T12:33:03.690Z,11.31
2022-10-04T12:35:45.817Z,11.37
2022-10-04T12:38:21.316Z,11.44
2022-10-04T12:41:16.110Z,11.48
2022-10-04T12:44:00.760Z,11.54
2022-10-04T12:46:45.630Z,11.58
2022-10-04T12:49:28.877Z,11.60
2022-10-04T12:52:12.002Z,11.65
2022-10-04T12:55:06.244Z,11.69
2022-10-04T12:58:19.687Z,11.70
2022-10-04T13:00:49.472Z,11.70
2022-10-04T13:03:23.013Z,11.70
2022-10-04T13:06:07.944Z,11.70
2022-10-04T13:08:53.947Z,11.69
2022-10-04T13:11:33.491Z,11.67
2022-10-04T13:14:26.612Z,11.69
2022-10-04T13:17:34.640Z,11.72
2022-10-04T13:20:37.942Z,11.73
2022-10-04T13:23:19.579Z,11.75
2022-10-04T13:26:04.430Z,11.80
2022-10-04T13:28:44.076Z,11.85
2022-10-04T13:31:35.138Z,11.86
2022-10-04T13:34:29.493Z,11.86
2022-10-04T13:37:12.247Z,11.84
2022-10-04T13:40:12.672Z,11.82
2022-10-04T13:42:49.659Z,11.79
2022-10-04T13:45:45.426Z,11.74
2022-10-04T13:49:04.550Z,11.72
2022-10-04T13:52:27.128Z,11.72
2022-10-04T13:55:53.066Z,11.79
2022-10-04T13:58:32.251Z,11.86
2022-10-04T14:01:02.911Z,11.91
2022-10-04T14:03:54.956Z,11.96
2022-10-04T14:06:38.688Z,12.02
2022-10-04T14:09:48.455Z,12.01
2022-10-04T14:12:42.900Z,11.97
2022-10-04T14:15:11.332Z,11.92
2022-10-04T14:18:10.643Z,11.88
2022-10-04T14:21:00.082Z,11.89
2022-10-04T14:23:37.912Z,11.93
2022-10-04T14:26:23.436Z,11.94
2022-10-04T14:29:28.620Z,11.93
2022-10-04T14:32:33.566Z,11.92
2022-10-04T14:35:13.483Z,11.90
2022-10-04T14:37:55.399Z,11.89
2022-10-04T14:40:57.143Z,11.84
2022-10-04T14:43:43.702Z,11.77
2022-10-04T14:46:42.119Z,11.70
2022-10-04T14:49:29.725Z,11.62
2022-10-04T14:52:36.758Z,11.55
2022-10-04T14:55:10.710Z,11.47
2022-10-04T14:57:38.504Z,11.43
2022-10-04T15:00:11.977Z,11.40
2022-10-04T15:03:04.422Z,11.38
2022-10-04T15:06:08.945Z,11.35
2022-10-04T15:08:57.923Z,11.32
2022-10-04T15:12:21.417Z,11.29
2022-10-04T15:15:12.293Z,11.24
2022-10-04T15:17:52.365Z,11.19
2022-10-04T15:20:57.373Z,11.13
2022-10-04T15:23:47.873Z,11.07
2022-10-04T15:26:18.535Z,11.01
2022-10-04T15:28:49.393Z,10.96
2022-10-04T15:31:28.823Z,10.95
2022-10-04T15:34:24.076Z,10.94
2022-10-04T15:37:29.676Z,10.90
2022-10-04T15:40:24.715Z,10.84
2022-10-04T15:43:11.003Z,10.80
2022-10-04T15:46:02.256Z,10.77
2022-10-04T15:49:09.974Z,10.74
2022-10-04T15:52:10.401Z,10.68
2022-10-04T15:55:15.326Z,10.64
2022-10-04T15:57:46.479Z,10.58
2022-10-04T16:00:41.343Z,10.55
2022-10-04T16:03:21.637Z,10.51
2022-10-04T16:06:12.567Z,10.49
2022-10-04T16:09:20.950Z,10.44
2022-10-04T16:12:20.359Z,10.36
2022-10-04T16:15:31.840Z,10.29
2022-10-04T16:18:17.431Z,10.20
2022-10-04T16:21:06.217Z,10.12
2022-10-04T16:23:37.125Z,10.07
2022-10-04T16:26:10.425Z,10.03
2022-10-04T16:28:51.442Z,10.00
2022-10-04T16:31:38.480Z,9.97
2022-10-04T16:34:08.145Z,9.93
2022-10-04T16:36:58.863Z,9.92
2022-10-04T16:40:00.117Z,9.93
2022-10-04T16:43:05.767Z,9.92
2022-10-04T16:45:40.886Z,9.92
2022-10-04T16:48:27.488Z,9.92
2022-10-04T16:51:13.389Z,9.91
2022-10-04T16:53:44.922Z,9.90
2022-10-04T16:56:17.987Z,9.88
2022-10-04T16:59:00.906Z,9.86
2022-10-04T17:01:41.024Z,9.86
2022-10-04T17:04:36.392Z,9.86
2022-10-04T17:07:12.258Z,9.86
2022-10-04T17:10:12.701Z,9.84
2022-10-04T17:12:47.623Z,9.81
2022-10-04T17:15:15.709Z,9.79
2022-10-04T17:18:11.551Z,9.79
2022-10-04T17:20:42.546Z,9.75
2022-10-04T17:23:31.821Z,9.73
2022-10-04T17:26:35.142Z,9.69
2022-10-04T17:29:32.595Z,9.66
2022-10-04T17:32:27.462Z,9.64
2022-10-04T17:35:20.084Z,9.62
2022-10-04T17:37:59.857Z,9.59
2022-10-04T17:40:40.773Z,9.55
2022-10-04T17:43:23.837Z,9.50
2022-10-04T17:46:16.384Z,9.44
2022-10-04T17:49:15.795Z,9.38
2022-10-04T17:52:12.404Z,9.31
2022-10-04T17:55:08.060Z,9.24
2022-10-04T17:57:35.871Z,9.17
2022-10-04T18:00:09.526Z,9.11
2022-10-04T18:02:37.570Z,9.03
2022-10-04T18:05:21.176Z,8.96
2022-10-04T18:07:57.146Z,8.90
2022-10-04T18:10:30.054Z,8.86
2022-10-04T18:13:12.093Z,8.84
2022-10-04T18:15:53.378Z,8.84
2022-10-04T18:18:29.784Z,8.84
2022-10-04T18:20:57.553Z,8.84
2022-10-04T18:23:27.451Z,8.84
2022-10-04T18:26:17.650Z,8.84
2022-10-04T18:28:47.761Z,8.84
2022-10-04T18:31:41.090Z,8.82
2022-10-04T18:34:29.962Z,8.82
2022-10-04T18:37:05.831Z,8.78
2022-10-04T18:39:53.108Z,8.77
2022-10-04T18:42:35.283Z,8.78
2022-10-04T18:45:34.065Z,8.77
2022-10-04T18:48:14.487Z,8.76
2022-10-04T18:50:47.364Z,8.74
2022-10-04T18:53:33.608Z,8.73
2022-10-04T18:56:20.517Z,8.70
2022-10-04T18:59:32.187Z,8.66
2022-10-04T19:03:00.502Z,8.63
2022-10-04T19:05:52.093Z,8.57
2022-10-04T19:08:38.853Z,8.53
2022-10-04T19:11:19.403Z,8.50
2022-10-04T19:14:10.217Z,8.46
2022-10-04T19:16:55.226Z,8.41
2022-10-04T19:19:31.647Z,8.36
2022-10-04T19:22:12.387Z,8.33
2022-10-04T19:25:02.195Z,8.31
2022-10-04T19:27:41.215Z,8.27
2022-10-04T19:30:22.859Z,8.22
2022-10-04T19:33:07.003Z,8.18
2022-10-04T19:35:38.032Z,8.13
2022-10-04T19:38:29.557Z,8.10
2022-10-04T19:40:57.798Z,8.06
2022-10-04T19:43:44.155Z,8.04
2022-10-04T19:46:26.227Z,8.00
2022-10-04T19:48:54.811Z,7.96
2022-10-04T19:51:34.393Z,7.93
2022-10-04T19:54:15.754Z,7.91
2022-10-04T19:56:49.720Z,7.89
2022-10-04T19:59:24.350Z,7.87
2022-10-04T20:01:53.191Z,7.86
2022-10-04T20:04:35.685Z,7.85
2022-10-04T20:07:23.363Z,7.80
2022-10-04T20:09:57.608Z,7.77
2022-10-04T20:12:35.804Z,7.74
2022-10-04T20:35:02.339Z,7.52
2022-10-04T20:37:45.132Z,7.45
2022-10-04T20:40:21.837Z,7.45
2022-10-04T20:43:26.613Z,7.44
2022-10-04T20:45:55.336Z,7.42
2022-10-04T20:48:29.059Z,7.40
2022-10-04T20:51:06.546Z,7.39
2022-10-04T20:53:34.635Z,7.39
2022-10-04T20:56:28.126Z,7.37
2022-10-04T20:59:01.205Z,7.35
2022-10-04T21:01:38.165Z,7.32
2022-10-04T21:04:50.064Z,7.30
2022-10-04T21:07:20.841Z,7.27
2022-10-04T21:09:49.770Z,7.25
2022-10-04T21:12:29.500Z,7.24
2022-10-04T21:15:17.797Z,7.23
2022-10-04T21:18:07.574Z,7.20
2022-10-04T21:20:52.312Z,7.15
2022-10-04T21:23:33.695Z,7.09
2022-10-04T21:26:21.164Z,7.08
2022-10-04T21:29:01.647Z,7.07
2022-10-04T21:31:29.648Z,7.03
2022-10-04T21:33:57.612Z,7.02
2022-10-04T21:36:25.938Z,7.01
2022-10-04T21:38:54.412Z,6.99
2022-10-04T21:41:22.212Z,6.97
2022-10-04T21:43:49.998Z,6.94
2022-10-04T21:46:20.365Z,6.93
2022-10-04T21:48:48.773Z,6.92
2022-10-04T21:51:16.717Z,6.91
2022-10-04T21:53:44.602Z,6.90
2022-10-04T21:56:12.614Z,6.91
2022-10-04T21:58:40.500Z,6.91
2022-10-04T22:01:08.530Z,6.91
2022-10-04T22:03:36.500Z,6.91
2022-10-04T22:06:04.461Z,6.91
2022-10-04T22:08:32.393Z,6.88
2022-10-04T22:11:00.287Z,6.87
2022-10-04T22:13:28.288Z,6.86
2022-10-04T22:15:56.217Z,6.84
2022-10-04T22:18:24.122Z,6.83
2022-10-04T22:20:51.934Z,6.83
2022-10-04T22:23:22.903Z,6.80
2022-10-04T22:25:51.201Z,6.78
2022-10-04T22:28:24.808Z,6.77
2022-10-04T22:30:55.887Z,6.75
2022-10-04T22:33:50.899Z,6.75
2022-10-04T22:36:35.871Z,6.72
2022-10-04T22:39:15.141Z,6.70
2022-10-04T22:41:47.443Z,6.69
2022-10-04T22:44:19.367Z,6.68
2022-10-04T22:46:51.800Z,6.69
2022-10-04T22:49:44.461Z,6.70
2022-10-04T22:52:21.661Z,6.67
2022-10-04T22:54:52.691Z,6.64
2022-10-04T22:57:20.885Z,6.61
2022-10-04T22:59:51.270Z,6.57
2022-10-04T23:02:26.792Z,6.53
2022-10-04T23:05:19.240Z,6.48
2022-10-04T23:07:51.277Z,6.45
2022-10-04T23:10:21.412Z,6.42
2022-10-04T23:12:49.704Z,6.40
2022-10-04T23:15:20.603Z,6.38
2022-10-04T23:17:55.378Z,6.38
2022-10-04T23:20:23.649Z,6.38
2022-10-04T23:22:53.318Z,6.37
2022-10-04T23:25:28.859Z,6.37
2022-10-04T23:28:01.224Z,6.36
2022-10-04T23:30:29.207Z,6.33
2022-10-04T23:33:00.677Z,6.32
2022-10-04T23:35:33.189Z,6.31
2022-10-04T23:38:07.281Z,6.31
2022-10-04T23:40:35.187Z,6.29
2022-10-04T23:43:06.085Z,6.28
2022-10-04T23:45:35.888Z,6.27
2022-10-04T23:48:08.709Z,6.28
2022-10-04T23:50:38.471Z,6.27
2022-10-04T23:53:19.737Z,6.27
2022-10-04T23:55:47.593Z,6.25
2022-10-04T23:58:30.112Z,6.24
